Time;durP1;ratioP1;P1;durP2;ratioP2;P2;SDS_P1;SDS_P2;PMS_P1;PMS_P2;Temp;Humidity;BMP_temperature;BMP_pressure;BME280_temperature;BME280_humidity;BME280_pressure;Samples;Min_cycle;Max_cycle;Signal;HPM_P1;HPM_P2
2022/12/05 00:01:36;;;;;;;2.72;1.10;;;26.00;56.00;;;;;;4138868;28;20042;-38
2022/12/05 00:04:00;;;;;;;3.65;1.10;;;25.90;56.20;;;;;;4141055;28;20045;-41
2022/12/05 00:06:23;;;;;;;3.03;1.10;;;25.90;56.10;;;;;;4139628;28;20140;-39
2022/12/05 00:08:46;;;;;;;5.18;1.40;;;26.00;56.60;;;;;;4133106;28;20103;-40
2022/12/05 00:11:18;;;;;;;4.15;1.17;;;26.00;56.80;;;;;;4136446;28;20061;-39
2022/12/05 00:13:42;;;;;;;0.85;0.75;;;26.10;56.90;;;;;;4137212;28;20637;-38
2022/12/05 00:16:08;;;;;;;2.60;0.90;;;26.10;56.90;;;;;;4141427;28;20515;-39
2022/12/05 00:18:32;;;;;;;5.22;1.15;;;26.20;57.10;;;;;;4138916;28;20045;-41
2022/12/05 00:20:54;;;;;;;;;;;26.20;57.00;;;;;;4133915;28;20180;-37
2022/12/05 00:23:16;;;;;;;5.85;1.10;;;26.20;57.10;;;;;;4142887;28;19931;-38
2022/12/05 00:25:39;;;;;;;6.90;1.30;;;26.30;57.10;;;;;;4138807;28;20123;-39
2022/12/05 00:28:02;;;;;;;2.17;0.87;;;26.30;57.30;;;;;;4145163;28;20538;-38
2022/12/05 00:30:25;;;;;;;1.10;0.68;;;26.40;57.50;;;;;;4140213;28;20385;-41
2022/12/05 00:32:47;;;;;;;1.20;0.60;;;26.40;57.40;;;;;;4139213;28;20034;-39
2022/12/05 00:35:10;;;;;;;1.60;0.50;;;26.50;57.30;;;;;;4143234;28;20041;-39
2022/12/05 00:37:32;;;;;;;2.55;0.50;;;26.60;57.30;;;;;;4138675;28;20197;-41
2022/12/05 00:39:55;;;;;;;1.00;0.70;;;26.60;57.20;;;;;;4138396;28;20417;-40
2022/12/05 00:42:17;;;;;;;0.95;0.73;;;26.60;57.20;;;;;;4138677;28;20043;-38
2022/12/05 00:44:40;;;;;;;2.47;0.90;;;26.70;57.30;;;;;;4142886;28;20042;-40
2022/12/05 00:47:03;;;;;;;2.78;0.50;;;26.70;57.30;;;;;;4140630;28;20044;-41
2022/12/05 00:49:25;;;;;;;1.88;0.57;;;26.70;57.20;;;;;;4143315;28;20679;-40
2022/12/05 00:51:48;;;;;;;6.13;0.60;;;26.80;57.20;;;;;;4144477;28;20106;-37
2022/12/05 00:54:14;;;;;;;0.52;0.30;;;26.80;57.20;;;;;;4144117;28;20037;-40
2022/12/05 00:56:37;;;;;;;3.17;0.50;;;26.80;57.10;;;;;;4141892;28;20103;-39
2022/12/05 00:59:01;;;;;;;2.72;0.70;;;26.90;57.10;;;;;;4140419;28;20037;-40
2022/12/05 01:01:33;;;;;;;2.45;0.70;;;26.90;57.10;;;;;;4135691;28;20053;-40
2022/12/05 01:03:57;;;;;;;1.95;0.52;;;26.90;57.10;;;;;;4141047;28;20042;-38
2022/12/05 01:06:20;;;;;;;1.67;0.63;;;27.00;57.10;;;;;;4144703;28;20104;-38
2022/12/05 01:08:43;;;;;;;1.30;0.40;;;27.00;57.00;;;;;;4138047;28;20042;-41
2022/12/05 01:11:07;;;;;;;2.05;0.60;;;27.10;57.00;;;;;;4140767;28;20045;-42
2022/12/05 01:13:30;;;;;;;1.67;0.73;;;27.10;56.90;;;;;;4147123;28;20135;-41
2022/12/05 01:15:53;;;;;;;0.90;0.53;;;27.20;56.90;;;;;;4140980;28;20050;-44
2022/12/05 01:18:16;;;;;;;1.23;0.60;;;27.20;56.80;;;;;;4139898;28;20037;-41
2022/12/05 01:20:42;;;;;;;0.40;0.40;;;27.30;56.80;;;;;;4143886;28;20455;-44
2022/12/05 01:23:05;;;;;;;0.82;0.50;;;27.30;56.80;;;;;;4142396;28;20060;-43
2022/12/05 01:25:27;;;;;;;2.22;0.60;;;27.30;56.80;;;;;;4140155;28;20038;-39
2022/12/05 01:27:50;;;;;;;2.67;0.77;;;27.40;56.80;;;;;;4143665;28;20048;-39
2022/12/05 01:30:13;;;;;;;1.55;0.60;;;27.40;56.80;;;;;;4140763;28;20045;-38
2022/12/05 01:32:35;;;;;;;1.23;0.52;;;27.50;57.50;;;;;;4143985;28;20037;-42
2022/12/05 01:34:58;;;;;;;0.60;0.60;;;27.50;56.90;;;;;;4140639;28;20120;-40
2022/12/05 01:37:20;;;;;;;2.65;0.70;;;27.60;56.90;;;;;;4145168;28;20388;-46
2022/12/05 01:39:43;;;;;;;0.70;0.43;;;27.60;56.90;;;;;;4142484;28;20328;-39
2022/12/05 01:42:06;;;;;;;5.38;1.10;;;27.60;56.80;;;;;;4144563;28;20047;-40
2022/12/05 01:44:29;;;;;;;2.38;1.05;;;27.70;56.60;;;;;;4135820;28;20042;-42
2022/12/05 01:46:53;;;;;;;2.83;1.30;;;27.80;55.40;;;;;;4149338;28;20034;-41
2022/12/05 01:49:38;;;;;;;2.42;1.30;;;27.90;54.90;;;;;;4147174;28;20057;-39
2022/12/05 01:52:09;;;;;;;2.05;1.30;;;28.00;54.60;;;;;;4145314;28;20409;-44
2022/12/05 01:54:34;;;;;;;1.38;1.10;;;28.10;54.40;;;;;;4144611;28;20100;-38
2022/12/05 01:57:01;;;;;;;1.58;1.10;;;28.10;54.30;;;;;;4147388;28;20044;-38
2022/12/05 01:59:28;;;;;;;1.80;1.17;;;28.20;54.30;;;;;;4147406;28;20036;-41
2022/12/05 02:01:51;;;;;;;5.18;1.40;;;28.20;54.20;;;;;;4145739;28;20069;-41
2022/12/05 02:04:14;;;;;;;2.35;1.25;;;28.20;54.20;;;;;;4151452;28;20041;-40
2022/12/05 02:06:37;;;;;;;2.07;1.00;;;28.30;54.30;;;;;;4150485;28;20052;-43
2022/12/05 02:09:00;;;;;;;2.50;1.40;;;28.30;54.30;;;;;;4150278;28;20374;-41
2022/12/05 02:11:26;;;;;;;2.97;1.33;;;28.40;54.30;;;;;;4147835;28;20041;-41
2022/12/05 02:13:48;;;;;;;2.17;1.50;;;28.40;54.20;;;;;;4150396;28;20217;-46
2022/12/05 02:16:29;;;;;;;2.60;1.30;;;28.50;54.10;;;;;;4148489;28;20037;-39
2022/12/05 02:19:06;;;;;;;1.88;1.05;;;28.60;54.10;;;;;;4145325;28;20099;-38
2022/12/05 02:22:00;;;;;;;2.03;1.27;;;28.60;54.00;;;;;;4143998;28;20413;-40
2022/12/05 02:24:34;;;;;;;1.23;1.00;;;28.70;53.90;;;;;;4144013;28;20048;-39
2022/12/05 02:27:01;;;;;;;1.98;1.30;;;28.70;54.00;;;;;;4147938;28;20033;-41
2022/12/05 02:29:49;;;;;;;3.47;1.63;;;28.80;53.90;;;;;;4146599;28;20049;-46
2022/12/05 02:32:40;;;;;;;3.28;1.88;;;28.80;53.90;;;;;;4147164;28;20048;-41
2022/12/05 02:35:20;;;;;;;2.20;1.15;;;28.90;54.70;;;;;;4146986;28;20574;-41
2022/12/05 02:38:07;;;;;;;2.45;1.30;;;28.90;53.90;;;;;;4151057;28;20064;-39
2022/12/05 02:40:45;;;;;;;2.17;1.42;;;29.00;53.80;;;;;;4147561;28;20069;-41
2022/12/05 02:43:12;;;;;;;2.67;1.45;;;29.00;53.80;;;;;;4146218;28;20188;-40
2022/12/05 02:45:38;;;;;;;4.45;1.75;;;29.00;53.70;;;;;;4144695;28;20489;-40
2022/12/05 02:48:01;;;;;;;1.80;1.40;;;29.10;53.70;;;;;;4153107;28;20090;-39
2022/12/05 02:50:30;;;;;;;2.45;1.40;;;29.10;53.60;;;;;;4148966;28;20059;-39
2022/12/05 02:52:56;;;;;;;3.22;1.67;;;29.20;53.60;;;;;;4147347;28;20041;-40
2022/12/05 02:55:19;;;;;;;2.20;1.48;;;29.30;53.50;;;;;;4154867;28;20041;-40
2022/12/05 02:57:45;;;;;;;2.13;1.35;;;29.30;53.40;;;;;;4151670;28;20164;-39
2022/12/05 03:00:08;;;;;;;3.30;1.80;;;29.40;53.40;;;;;;4156444;28;20045;-37
2022/12/05 03:02:33;;;;;;;2.97;1.98;;;29.40;53.30;;;;;;4148657;28;20832;-42
2022/12/05 03:05:03;;;;;;;2.17;1.50;;;29.40;53.20;;;;;;4137391;28;20030;-39
2022/12/05 03:07:28;;;;;;;2.50;1.58;;;29.50;53.10;;;;;;4148351;28;20039;-42
2022/12/05 03:10:05;;;;;;;3.08;1.50;;;29.60;53.20;;;;;;4123249;28;20481;-41
2022/12/05 03:12:37;;;;;;;3.85;1.95;;;29.50;53.10;;;;;;4149130;28;20044;-41
2022/12/05 03:15:08;;;;;;;3.08;2.10;;;29.60;53.20;;;;;;4149346;28;20037;-41
2022/12/05 03:17:36;;;;;;;3.22;1.70;;;29.70;53.20;;;;;;4143909;28;20045;-45
2022/12/05 03:20:21;;;;;;;2.90;1.60;;;29.70;53.20;;;;;;4134182;28;20091;-38
2022/12/05 03:23:11;;;;;;;2.30;1.50;;;29.80;53.20;;;;;;4146455;28;20445;-41
2022/12/05 03:26:00;;;;;;;3.63;1.88;;;29.80;53.20;;;;;;4148741;28;20045;-37
2022/12/05 03:28:37;;;;;;;1.88;1.33;;;29.80;53.10;;;;;;4116738;28;20048;-40
2022/12/05 03:31:05;;;;;;;2.17;1.33;;;29.90;53.10;;;;;;4147454;28;20096;-39
2022/12/05 03:33:34;;;;;;;2.10;1.40;;;29.90;53.10;;;;;;4129799;28;20493;-39
2022/12/05 03:36:28;;;;;;;1.70;1.30;;;30.00;53.20;;;;;;4146532;28;20436;-43
2022/12/05 03:38:57;;;;;;;3.28;1.10;;;30.10;53.20;;;;;;4140479;28;20136;-43
2022/12/05 03:41:24;;;;;;;2.15;1.30;;;30.10;53.10;;;;;;4137310;28;20074;-38
2022/12/05 03:43:56;;;;;;;2.47;1.35;;;30.20;53.10;;;;;;4141016;28;20080;-39
2022/12/05 03:46:30;;;;;;;7.60;1.50;;;30.20;53.10;;;;;;4137083;28;20034;-39
2022/12/05 03:53:27;;;;;;;2.95;1.50;;;30.30;52.80;;;;;;4212232;22;20714;-55
2022/12/05 03:56:09;;;;;;;1.55;1.15;;;30.40;52.80;;;;;;4118419;28;20031;-57
2022/12/05 03:59:13;;;;;;;2.17;1.20;;;30.40;52.70;;;;;;4121039;28;20092;-58
2022/12/05 04:01:38;;;;;;;2.92;1.10;;;30.50;52.80;;;;;;4121539;28;20477;-51
2022/12/05 04:04:07;;;;;;;3.65;1.30;;;30.50;52.70;;;;;;4117296;28;20042;-57
2022/12/05 04:06:35;;;;;;;2.55;1.80;;;30.60;52.80;;;;;;4127101;28;20072;-53
2022/12/05 04:09:29;;;;;;;4.03;1.33;;;30.60;52.90;;;;;;4127165;28;21184;-48
2022/12/05 04:12:07;;;;;;;2.45;1.45;;;30.60;52.90;;;;;;4128886;28;20495;-51
2022/12/05 04:14:49;;;;;;;2.25;1.10;;;30.70;53.00;;;;;;4134627;28;20029;-51
2022/12/05 04:17:29;;;;;;;2.67;1.27;;;30.80;52.90;;;;;;4133110;28;20389;-49
2022/12/05 05:22:24;;;;;;;2.30;1.20;;;31.40;51.80;;;;;;3079540;23;20136;-60
2022/12/05 05:24:46;;;;;;;7.38;1.67;;;31.50;51.70;;;;;;4110990;28;20448;-62
2022/12/05 05:27:09;;;;;;;3.20;1.20;;;31.60;51.80;;;;;;4135980;28;20491;-63
2022/12/05 05:29:32;;;;;;;4.77;1.30;;;31.60;51.70;;;;;;4131910;28;20057;-58
2022/12/05 05:31:54;;;;;;;2.53;1.10;;;31.70;51.50;;;;;;4129399;28;20038;-59
2022/12/05 05:34:20;;;;;;;3.08;1.20;;;31.80;51.60;;;;;;4125889;28;20154;-61
2022/12/05 05:36:42;;;;;;;3.10;1.50;;;31.80;51.30;;;;;;4124484;28;20042;-60
2022/12/05 05:39:11;;;;;;;9.18;1.27;;;31.80;51.20;;;;;;4127625;28;20046;-65
2022/12/05 05:41:35;;;;;;;1.20;0.88;;;31.80;51.20;;;;;;4117770;28;20034;-60
2022/12/05 05:43:59;;;;;;;4.30;1.73;;;31.80;51.10;;;;;;4131129;28;20151;-61
2022/12/05 05:46:22;;;;;;;;;;;31.80;51.70;;;;;;4114892;28;20057;-54
2022/12/05 05:48:45;;;;;;;5.43;1.25;;;31.90;51.40;;;;;;4123949;28;19920;-56
2022/12/05 05:51:10;;;;;;;3.30;1.52;;;32.00;51.60;;;;;;4129758;28;20049;-54
2022/12/05 05:53:33;;;;;;;2.92;1.30;;;32.00;51.50;;;;;;4141008;28;20044;-58
2022/12/05 05:55:55;;;;;;;2.37;1.50;;;32.00;51.50;;;;;;4140643;28;20479;-61
2022/12/05 05:58:18;;;;;;;2.90;1.10;;;32.00;51.50;;;;;;4138354;28;20331;-61
2022/12/05 06:00:41;;;;;;;3.17;1.50;;;32.00;51.50;;;;;;4145043;28;20286;-60
2022/12/05 06:03:03;;;;;;;1.90;1.40;;;32.00;51.40;;;;;;4144196;28;20061;-55
2022/12/05 06:05:26;;;;;;;4.30;1.50;;;32.00;51.50;;;;;;4131409;28;20053;-58
2022/12/05 06:07:49;;;;;;;2.73;1.60;;;31.90;51.40;;;;;;4129920;28;20048;-59
2022/12/05 06:10:11;;;;;;;2.83;1.70;;;32.00;51.40;;;;;;4125036;28;20132;-59
2022/12/05 06:12:34;;;;;;;3.78;1.90;;;32.00;51.30;;;;;;4127923;28;20034;-58
2022/12/05 06:14:57;;;;;;;2.55;1.42;;;32.00;51.20;;;;;;4128293;28;20362;-53
2022/12/05 06:17:19;;;;;;;3.63;1.83;;;32.00;51.20;;;;;;4133408;28;20052;-58
2022/12/05 06:19:42;;;;;;;2.80;1.83;;;32.10;51.00;;;;;;4128874;28;20299;-56
2022/12/05 06:22:04;;;;;;;2.53;1.43;;;32.20;51.40;;;;;;4137795;28;20492;-55
2022/12/05 06:24:27;;;;;;;2.80;1.80;;;32.20;50.60;;;;;;4146213;28;20038;-54
2022/12/05 06:26:50;;;;;;;2.05;1.25;;;32.30;50.20;;;;;;4142811;28;20629;-51
2022/12/05 06:29:12;;;;;;;3.40;1.43;;;32.30;50.00;;;;;;4141067;28;20033;-52
2022/12/05 06:31:35;;;;;;;2.53;1.57;;;32.30;49.70;;;;;;4142194;28;20056;-54
2022/12/05 06:34:04;;;;;;;3.40;1.53;;;32.30;49.50;;;;;;4136581;28;20424;-54
2022/12/05 06:36:28;;;;;;;3.13;1.38;;;32.30;49.40;;;;;;4140542;28;20448;-54
2022/12/05 06:38:51;;;;;;;1.88;1.27;;;32.30;49.30;;;;;;4139370;28;20325;-55
2022/12/05 06:41:19;;;;;;;2.10;1.60;;;32.30;49.20;;;;;;4140005;28;20442;-55
2022/12/05 06:43:42;;;;;;;2.45;1.50;;;32.20;48.90;;;;;;4139399;28;20267;-53
2022/12/05 06:46:05;;;;;;;;;;;32.20;48.80;;;;;;4144292;28;20056;-57
2022/12/05 06:48:28;;;;;;;2.38;1.58;;;32.20;48.70;;;;;;4149145;28;19936;-56
2022/12/05 06:50:52;;;;;;;2.37;1.60;;;32.20;48.60;;;;;;4148410;28;20126;-50
2022/12/05 06:53:15;;;;;;;3.88;1.85;;;32.20;48.60;;;;;;4145832;28;20331;-53
2022/12/05 06:55:37;;;;;;;3.93;1.90;;;32.10;48.60;;;;;;4144399;28;20485;-56
2022/12/05 06:58:00;;;;;;;4.10;2.13;;;32.10;48.50;;;;;;4145639;28;20042;-55
2022/12/05 07:03:03;;;;;;;3.42;1.70;;;32.00;48.40;;;;;;4145474;28;20064;-55
2022/12/05 07:05:26;;;;;;;2.58;1.85;;;32.00;48.50;;;;;;4148623;28;20133;-56
2022/12/05 07:07:48;;;;;;;3.47;1.83;;;32.00;48.50;;;;;;4143806;28;20045;-55
2022/12/05 07:10:12;;;;;;;3.22;1.55;;;32.00;48.50;;;;;;4142003;28;20048;-57
2022/12/05 07:12:34;;;;;;;3.65;1.50;;;32.00;48.60;;;;;;4143786;28;20045;-54
2022/12/05 07:14:57;;;;;;;2.78;1.65;;;32.00;48.60;;;;;;4144322;28;20080;-56
2022/12/05 07:17:21;;;;;;;2.87;1.40;;;31.90;49.20;;;;;;4147014;28;20029;-53
2022/12/05 07:19:43;;;;;;;2.05;1.40;;;31.90;48.70;;;;;;4148915;28;20529;-56
2022/12/05 07:22:06;;;;;;;2.33;1.53;;;31.80;48.60;;;;;;4144004;28;20489;-54
2022/12/05 07:24:29;;;;;;;3.80;1.83;;;31.80;48.60;;;;;;4131037;28;20283;-51
2022/12/05 07:26:51;;;;;;;2.97;1.75;;;31.80;48.60;;;;;;4144820;28;20037;-55
2022/12/05 07:29:14;;;;;;;2.90;1.65;;;31.80;48.70;;;;;;4139651;28;20064;-55
2022/12/05 07:31:36;;;;;;;4.03;1.90;;;31.80;48.70;;;;;;4145787;28;20053;-54
2022/12/05 07:33:59;;;;;;;2.90;1.70;;;31.70;48.80;;;;;;4145743;28;20124;-55
2022/12/05 07:36:22;;;;;;;3.53;1.97;;;31.70;48.80;;;;;;4148609;28;20045;-53
2022/12/05 07:38:45;;;;;;;3.33;2.03;;;31.70;48.80;;;;;;4236096;22;20399;-46
2022/12/05 07:41:19;;;;;;;4.05;1.90;;;31.70;48.90;;;;;;4127501;28;20465;-45
2022/12/05 07:43:42;;;;;;;4.35;2.45;;;31.70;48.90;;;;;;4114080;28;20425;-46
2022/12/05 07:46:06;;;;;;;4.75;2.65;;;31.60;49.00;;;;;;4121093;28;20042;-41
2022/12/05 07:48:28;;;;;;;4.13;2.25;;;31.60;49.10;;;;;;4129945;28;20045;-42
2022/12/05 07:50:51;;;;;;;4.23;2.10;;;31.60;49.20;;;;;;4129098;28;20522;-46
2022/12/05 07:53:14;;;;;;;4.72;2.47;;;31.60;49.40;;;;;;4122415;28;20876;-45
2022/12/05 07:55:38;;;;;;;4.73;2.23;;;31.60;49.60;;;;;;4129861;28;20474;-45
2022/12/05 07:58:00;;;;;;;4.75;2.10;;;31.50;49.80;;;;;;4123981;28;20487;-47
2022/12/05 08:00:23;;;;;;;4.10;2.40;;;31.50;50.10;;;;;;4121773;28;20556;-45
2022/12/05 08:02:45;;;;;;;4.83;2.50;;;31.40;50.30;;;;;;4123581;28;20044;-40
2022/12/05 08:05:08;;;;;;;5.97;2.00;;;31.50;50.70;;;;;;4123584;28;20046;-43
2022/12/05 08:07:31;;;;;;;4.72;2.47;;;31.40;50.80;;;;;;4121094;28;20477;-41
2022/12/05 08:09:53;;;;;;;4.23;2.20;;;31.40;51.00;;;;;;4466753;22;22711;-53
2022/12/05 08:12:16;;;;;;;5.65;2.30;;;31.40;51.20;;;;;;4160638;28;20350;-54
2022/12/05 08:14:38;;;;;;;4.53;2.37;;;31.40;51.50;;;;;;4158364;28;20036;-58
2022/12/05 08:17:01;;;;;;;4.30;2.00;;;31.40;52.00;;;;;;4162904;28;20541;-58
2022/12/05 08:19:23;;;;;;;4.00;2.13;;;31.30;52.40;;;;;;4144439;28;20042;-56
2022/12/05 08:21:46;;;;;;;5.43;2.30;;;31.30;52.70;;;;;;4134107;28;20045;-58
2022/12/05 08:24:10;;;;;;;4.88;2.45;;;31.20;52.70;;;;;;4147705;28;20447;-56
2022/12/05 08:26:35;;;;;;;5.72;2.33;;;31.20;52.90;;;;;;4139072;28;20045;-52
2022/12/05 08:29:00;;;;;;;4.43;2.30;;;31.20;53.00;;;;;;4139482;28;20042;-55
2022/12/05 08:31:25;;;;;;;5.30;2.38;;;31.20;53.30;;;;;;4136054;28;20460;-54
2022/12/05 08:33:47;;;;;;;6.22;2.42;;;31.10;53.50;;;;;;4133144;28;20105;-57
2022/12/05 08:36:12;;;;;;;4.78;1.85;;;31.10;53.50;;;;;;4138314;28;20045;-56
2022/12/05 08:38:36;;;;;;;5.13;1.75;;;31.10;53.60;;;;;;4140076;28;20033;-54
2022/12/05 08:41:07;;;;;;;4.15;2.00;;;31.10;53.80;;;;;;4124502;28;20485;-59
2022/12/05 08:43:30;;;;;;;5.60;2.40;;;31.10;53.80;;;;;;4171363;22;20041;-41
2022/12/05 08:45:53;;;;;;;5.53;2.13;;;31.10;53.80;;;;;;4148688;28;20037;-40
2022/12/05 08:48:16;;;;;;;6.93;2.10;;;31.10;53.80;;;;;;4146167;28;20500;-44
2022/12/05 08:50:39;;;;;;;6.10;1.90;;;31.10;53.70;;;;;;4148256;28;20045;-44
2022/12/05 08:53:01;;;;;;;;;;;31.00;53.70;;;;;;4146617;28;20100;-43
2022/12/05 08:55:23;;;;;;;5.88;2.30;;;31.00;53.70;;;;;;4150659;28;19920;-41
2022/12/05 08:57:46;;;;;;;5.78;2.15;;;31.00;53.80;;;;;;4145817;28;20509;-45
2022/12/05 09:00:09;;;;;;;6.40;2.40;;;31.00;53.80;;;;;;4144958;28;20033;-42
2022/12/05 09:02:32;;;;;;;5.70;2.50;;;31.00;53.90;;;;;;4143259;28;20045;-40
2022/12/05 09:04:55;;;;;;;8.30;2.65;;;31.00;53.90;;;;;;4144891;28;20123;-46
2022/12/05 09:07:18;;;;;;;6.32;2.50;;;31.00;54.00;;;;;;4144735;28;20390;-43
2022/12/05 09:09:40;;;;;;;6.03;2.37;;;31.00;53.90;;;;;;4140580;28;20114;-46
2022/12/05 09:12:03;;;;;;;6.63;2.20;;;31.00;54.00;;;;;;4147197;28;20834;-42
2022/12/05 09:16:39;;;;;;;6.15;2.38;;;31.00;53.80;;;;;;4099356;28;20402;-43
2022/12/05 09:19:03;;;;;;;9.80;2.30;;;31.00;53.90;;;;;;4103597;28;20436;-43
2022/12/05 09:21:28;;;;;;;4.88;1.83;;;31.00;54.00;;;;;;4109205;28;20068;-43
2022/12/05 09:23:52;;;;;;;5.88;1.88;;;31.00;54.20;;;;;;4107549;28;20046;-42
2022/12/05 09:26:16;;;;;;;5.63;2.10;;;31.00;54.20;;;;;;4106259;28;20038;-44
2022/12/05 09:28:40;;;;;;;4.20;1.60;;;31.00;54.30;;;;;;4121291;28;20117;-45
2022/12/05 09:31:05;;;;;;;4.32;1.80;;;30.90;54.30;;;;;;4111098;28;20181;-45
2022/12/05 09:33:29;;;;;;;5.63;1.80;;;30.90;54.40;;;;;;4122025;28;20052;-46
2022/12/05 09:35:52;;;;;;;5.72;2.17;;;30.90;54.30;;;;;;4111348;28;20066;-46
2022/12/05 09:38:14;;;;;;;5.67;1.97;;;30.90;54.20;;;;;;4113683;28;20038;-47
2022/12/05 09:40:44;;;;;;;5.32;2.17;;;30.90;54.30;;;;;;4109865;28;20157;-42
2022/12/05 09:43:12;;;;;;;4.78;2.17;;;30.80;54.30;;;;;;4108568;28;20397;-45
2022/12/05 09:45:45;;;;;;;4.97;2.13;;;30.70;54.20;;;;;;4114390;28;20042;-43
2022/12/05 09:48:14;;;;;;;8.55;2.50;;;30.70;54.20;;;;;;4117668;28;20100;-42
2022/12/05 09:51:00;;;;;;;5.32;2.08;;;30.70;54.30;;;;;;4115639;28;20752;-43
2022/12/05 09:53:26;;;;;;;6.28;2.60;;;30.70;54.30;;;;;;4117690;28;20074;-44
2022/12/05 09:55:53;;;;;;;6.18;2.15;;;30.70;54.50;;;;;;4127669;28;20053;-43
2022/12/05 09:58:25;;;;;;;6.00;2.70;;;30.70;54.60;;;;;;4112674;28;20068;-42
2022/12/05 10:00:51;;;;;;;6.90;2.08;;;30.70;54.70;;;;;;4111691;28;20120;-45
2022/12/05 10:03:40;;;;;;;5.30;1.63;;;30.70;54.80;;;;;;4114728;28;20078;-43
2022/12/05 10:06:17;;;;;;;3.80;1.95;;;30.60;54.90;;;;;;4116495;28;20038;-45
2022/12/05 10:13:50;;;;;;;4.75;1.85;;;30.60;55.20;;;;;;4141000;28;20050;-43
2022/12/05 10:16:20;;;;;;;3.63;2.00;;;30.60;55.30;;;;;;4141625;28;20092;-42
2022/12/05 10:18:51;;;;;;;4.63;2.15;;;30.60;55.60;;;;;;4131615;28;20042;-43
2022/12/05 10:21:35;;;;;;;6.28;2.30;;;30.60;55.80;;;;;;4123515;28;20141;-45
2022/12/05 10:24:01;;;;;;;4.68;1.90;;;30.60;55.90;;;;;;4119163;28;20525;-46
2022/12/05 10:26:29;;;;;;;5.05;2.00;;;30.60;56.00;;;;;;4124512;28;20038;-45
2022/12/05 10:28:51;;;;;;;5.70;1.85;;;30.60;56.00;;;;;;4121472;28;20076;-45
2022/12/05 10:31:23;;;;;;;6.27;2.20;;;30.60;56.20;;;;;;4119793;28;20494;-45
2022/12/05 10:33:52;;;;;;;6.13;2.22;;;30.60;56.20;;;;;;4124226;28;20386;-47
2022/12/05 10:36:15;;;;;;;9.98;2.78;;;30.60;56.30;;;;;;4126967;28;20045;-56
2022/12/05 10:38:38;;;;;;;6.38;2.38;;;30.50;56.60;;;;;;4130751;28;20434;-46
2022/12/05 10:41:06;;;;;;;4.82;1.85;;;30.50;56.60;;;;;;4131941;28;20128;-46
2022/12/05 10:43:31;;;;;;;3.35;1.60;;;30.50;56.40;;;;;;4130914;28;20073;-43
2022/12/05 10:45:54;;;;;;;4.32;2.00;;;30.40;56.60;;;;;;4124941;28;20177;-46
2022/12/05 10:48:18;;;;;;;3.60;1.70;;;30.40;56.70;;;;;;4126945;28;20031;-45
2022/12/05 10:50:43;;;;;;;4.30;1.92;;;30.40;56.70;;;;;;4128206;28;20390;-46
2022/12/05 10:53:07;;;;;;;3.00;1.75;;;30.40;56.70;;;;;;4131613;28;20084;-45
2022/12/05 10:55:47;;;;;;;;;;;30.40;57.00;;;;;;4129897;28;20100;-39
2022/12/05 10:58:14;;;;;;;6.25;2.70;;;30.40;56.80;;;;;;4123213;28;19913;-42
2022/12/05 11:00:43;;;;;;;4.60;2.30;;;30.30;57.10;;;;;;4116744;28;20052;-45
2022/12/05 11:03:18;;;;;;;3.85;1.90;;;30.30;57.30;;;;;;4121003;28;20906;-40
2022/12/05 11:05:41;;;;;;;4.32;2.08;;;30.30;57.30;;;;;;4125415;23;20120;-41
2022/12/05 11:08:04;;;;;;;6.33;2.00;;;30.30;57.40;;;;;;4099915;28;20727;-40
2022/12/05 11:10:36;;;;;;;2.97;1.50;;;30.20;57.40;;;;;;4099716;28;20051;-40
2022/12/05 11:12:59;;;;;;;4.18;1.90;;;30.20;57.40;;;;;;4101403;28;20053;-42
2022/12/05 11:15:25;;;;;;;5.80;1.90;;;30.20;57.40;;;;;;4101906;28;20450;-44
2022/12/05 11:17:49;;;;;;;4.85;2.05;;;30.10;57.50;;;;;;4104405;28;20130;-39
2022/12/05 11:20:20;;;;;;;5.50;2.03;;;30.10;57.60;;;;;;4105328;28;20042;-41
2022/12/05 11:22:45;;;;;;;4.20;1.98;;;30.10;57.60;;;;;;4144114;23;20265;-39
2022/12/05 11:25:30;;;;;;;4.72;2.00;;;30.10;57.70;;;;;;4150294;28;20072;-41
2022/12/05 11:27:53;;;;;;;3.67;2.03;;;30.20;57.70;;;;;;4151300;28;20049;-43
2022/12/05 11:30:20;;;;;;;4.40;2.05;;;30.20;57.70;;;;;;4151113;28;20049;-42
2022/12/05 11:32:42;;;;;;;3.83;2.10;;;30.20;57.70;;;;;;4150964;28;20050;-44
2022/12/05 11:35:11;;;;;;;5.65;2.72;;;30.20;57.70;;;;;;4148444;28;20040;-39
2022/12/05 11:37:51;;;;;;;5.05;2.08;;;30.10;57.60;;;;;;4170997;23;20038;-44
2022/12/05 11:40:32;;;;;;;3.08;1.80;;;30.10;57.80;;;;;;4133707;28;20512;-43
2022/12/05 11:43:15;;;;;;;4.35;2.00;;;30.10;57.80;;;;;;4139283;28;20045;-45
2022/12/05 11:46:08;;;;;;;6.93;2.65;;;30.10;57.90;;;;;;4138317;28;20030;-41
2022/12/05 11:48:40;;;;;;;8.27;2.70;;;30.10;58.20;;;;;;4129391;28;20037;-45
2022/12/05 11:51:25;;;;;;;11.60;3.47;;;30.10;58.40;;;;;;4152429;28;20464;-46
2022/12/05 11:54:06;;;;;;;14.15;3.90;;;30.20;57.70;;;;;;4137170;28;20050;-50
2022/12/05 11:56:43;;;;;;;9.98;3.80;;;30.10;56.80;;;;;;4142029;28;20052;-49
2022/12/05 11:59:40;;;;;;;7.82;3.30;;;30.10;56.50;;;;;;4136126;28;20049;-51
2022/12/05 12:02:24;;;;;;;6.72;3.70;;;30.00;57.00;;;;;;4132648;28;20049;-46
2022/12/05 12:05:22;;;;;;;14.55;4.10;;;29.90;56.30;;;;;;4132864;28;20113;-48
2022/12/05 12:07:53;;;;;;;9.27;3.55;;;29.90;56.10;;;;;;4140173;28;20469;-43
2022/12/05 12:10:41;;;;;;;9.00;4.18;;;29.80;56.10;;;;;;4134701;28;20128;-42
2022/12/05 12:13:18;;;;;;;9.35;3.47;;;29.80;56.20;;;;;;4139720;28;20072;-41
2022/12/05 12:16:17;;;;;;;8.77;3.80;;;29.70;56.10;;;;;;4143646;28;20049;-43
2022/12/05 12:19:04;;;;;;;13.05;3.85;;;29.70;56.10;;;;;;4126118;28;20026;-43
2022/12/05 12:21:51;;;;;;;7.05;3.75;;;29.60;56.60;;;;;;4130108;28;20543;-47
2022/12/05 12:24:31;;;;;;;8.27;3.78;;;29.60;56.80;;;;;;4127333;28;20145;-44
2022/12/05 12:27:18;;;;;;;7.38;3.50;;;29.60;56.80;;;;;;4126751;28;20042;-51
2022/12/05 12:29:43;;;;;;;7.45;3.58;;;29.60;56.80;;;;;;4126104;28;20057;-45
2022/12/05 12:32:25;;;;;;;9.07;4.00;;;29.60;56.80;;;;;;4129365;28;20357;-46
2022/12/05 12:35:05;;;;;;;9.00;4.03;;;29.50;56.70;;;;;;4131080;28;20098;-42
2022/12/05 12:37:58;;;;;;;7.43;3.83;;;29.50;56.70;;;;;;4126512;28;20051;-44
2022/12/05 12:40:32;;;;;;;7.82;3.60;;;29.50;56.70;;;;;;4125870;28;20042;-46
2022/12/05 12:43:18;;;;;;;10.20;4.03;;;29.50;56.70;;;;;;4124590;28;20042;-43
2022/12/05 12:45:56;;;;;;;9.60;3.80;;;29.40;56.60;;;;;;4124960;28;20038;-44
2022/12/05 12:48:34;;;;;;;9.57;4.00;;;29.30;56.60;;;;;;4120594;28;20042;-43
2022/12/05 12:51:00;;;;;;;13.35;3.80;;;29.30;56.60;;;;;;4124975;28;20052;-39
2022/12/05 12:53:38;;;;;;;8.63;3.63;;;29.30;56.50;;;;;;4123599;28;20030;-43
2022/12/05 12:56:00;;;;;;;14.30;4.20;;;29.30;56.50;;;;;;4123545;28;20128;-41
2022/12/05 12:58:39;;;;;;;11.73;4.20;;;29.30;56.50;;;;;;4126386;28;20466;-41
2022/12/05 13:01:11;;;;;;;7.40;3.58;;;29.30;56.50;;;;;;4124362;28;20052;-40
2022/12/05 13:04:01;;;;;;;13.80;3.65;;;29.20;56.40;;;;;;4129477;28;20068;-42
2022/12/05 13:06:28;;;;;;;10.93;4.25;;;29.20;56.40;;;;;;4126101;28;20041;-42
2022/12/05 13:09:07;;;;;;;12.23;3.90;;;29.20;56.50;;;;;;4124293;28;20129;-45
2022/12/05 13:11:35;;;;;;;8.80;3.40;;;29.20;56.50;;;;;;4126238;28;20434;-43
2022/12/05 13:14:00;;;;;;;10.25;3.78;;;29.10;56.40;;;;;;4128312;28;20124;-44
2022/12/05 13:16:34;;;;;;;10.70;3.47;;;29.10;56.60;;;;;;4124035;28;20042;-48
2022/12/05 13:18:58;;;;;;;9.52;4.13;;;29.10;56.70;;;;;;4122487;28;20046;-42
2022/12/05 13:21:21;;;;;;;9.60;3.88;;;29.00;56.70;;;;;;4119366;28;20559;-42
2022/12/05 13:23:54;;;;;;;7.30;3.80;;;29.00;56.70;;;;;;4123157;28;20046;-42
2022/12/05 13:26:18;;;;;;;8.80;3.72;;;29.00;56.70;;;;;;4122288;28;20034;-41
2022/12/05 13:28:52;;;;;;;7.72;3.53;;;29.00;56.70;;;;;;4127674;28;20042;-42
2022/12/05 13:31:16;;;;;;;12.13;4.00;;;28.90;56.60;;;;;;4123378;28;20054;-42
2022/12/05 13:33:45;;;;;;;8.18;3.75;;;28.90;56.60;;;;;;4123749;28;20038;-42
2022/12/05 13:44:35;;;;;;;9.50;4.00;;;28.80;56.70;;;;;;4125395;28;20073;-41
2022/12/05 13:46:57;;;;;;;9.65;3.97;;;28.80;56.70;;;;;;4124230;28;20045;-41
2022/12/05 13:49:42;;;;;;;8.65;3.40;;;28.80;56.90;;;;;;4129174;28;20037;-41
2022/12/05 13:52:18;;;;;;;6.90;3.63;;;28.80;56.90;;;;;;4124500;28;20037;-42
2022/12/05 13:54:51;;;;;;;9.13;3.50;;;28.80;56.90;;;;;;4124821;28;20112;-43
2022/12/05 13:57:39;;;;;;;5.10;3.10;;;28.70;56.80;;;;;;4121673;28;20049;-42
2022/12/05 14:00:08;;;;;;;7.05;3.42;;;28.70;56.80;;;;;;4126116;28;20065;-42
2022/12/05 14:02:46;;;;;;;9.20;3.58;;;28.70;56.80;;;;;;4118112;28;20045;-47
2022/12/05 14:05:20;;;;;;;7.45;3.70;;;28.70;56.80;;;;;;4126033;28;20650;-43
2022/12/05 14:07:51;;;;;;;10.00;3.58;;;28.60;56.70;;;;;;4122143;28;20125;-44
2022/12/05 14:11:02;;;;;;;9.25;3.65;;;28.60;56.80;;;;;;4123402;28;20519;-41
2022/12/05 14:13:28;;;;;;;8.15;3.97;;;28.60;56.90;;;;;;4124134;28;21205;-44
2022/12/05 14:16:11;;;;;;;10.50;3.40;;;28.60;56.90;;;;;;4124082;28;20068;-41
2022/12/05 14:19:06;;;;;;;8.10;3.88;;;28.50;56.80;;;;;;4128143;28;20034;-46
2022/12/05 14:21:48;;;;;;;7.00;3.38;;;28.60;56.90;;;;;;4126699;28;20077;-42